createdAt,value
2018-11-12T00:01:19.247Z,97.66
2018-11-12T00:03:47.739Z,98.14
2018-11-12T00:06:16.317Z,98.07
2018-11-12T00:08:45.656Z,98.28
2018-11-12T00:11:14.186Z,98.21
2018-11-12T00:13:42.627Z,98.03
2018-11-12T00:16:11.127Z,98.51
2018-11-12T00:18:40.362Z,98.29
2018-11-12T00:21:08.838Z,98.11
2018-11-12T00:23:37.331Z,98.15
2018-11-12T00:26:06.662Z,98.72
2018-11-12T00:28:35.071Z,99.12
2018-11-12T00:31:03.637Z,98.68
2018-11-12T00:33:32.127Z,97.55
2018-11-12T00:36:00.563Z,97.07
2018-11-12T00:38:28.994Z,97.79
2018-11-12T00:40:57.515Z,97.44
2018-11-12T00:43:25.996Z,97.19
2018-11-12T00:45:54.469Z,96.44
2018-11-12T00:48:22.949Z,95.67
2018-11-12T00:50:51.401Z,96.62
2018-11-12T00:53:19.807Z,96.33
2018-11-12T00:55:48.306Z,97.34
2018-11-12T00:58:17.363Z,97.87
2018-11-12T01:00:45.814Z,98.21
2018-11-12T01:03:14.203Z,97.26
2018-11-12T01:05:42.763Z,98.23
2018-11-12T01:08:11.234Z,98.03
2018-11-12T01:10:39.742Z,98.27
2018-11-12T01:13:08.179Z,98.11
2018-11-12T01:15:37.558Z,98.55
2018-11-12T01:18:06.026Z,98.51
2018-11-12T01:20:34.510Z,97.82
2018-11-12T01:23:02.937Z,98.66
2018-11-12T01:25:31.383Z,97.02
2018-11-12T01:27:59.831Z,97.74
2018-11-12T01:30:28.315Z,97.45
2018-11-12T01:32:56.796Z,96.85
2018-11-12T01:35:25.243Z,97.12
2018-11-12T01:37:53.719Z,97.40
2018-11-12T01:40:22.214Z,97.31
2018-11-12T01:42:50.654Z,97.85
2018-11-12T01:45:20.149Z,96.16
2018-11-12T01:47:49.972Z,97.11
2018-11-12T01:50:19.130Z,97.04
2018-11-12T01:52:48.379Z,97.44
2018-11-12T01:55:17.887Z,97.45
2018-11-12T01:57:46.530Z,97.33
2018-11-12T02:00:18.145Z,98.54
2018-11-12T02:02:47.777Z,98.78
2018-11-12T02:05:16.501Z,98.84
2018-11-12T02:07:45.758Z,99.39
2018-11-12T02:10:15.471Z,98.65
2018-11-12T02:12:44.088Z,98.32
2018-11-12T02:15:15.069Z,98.16
2018-11-12T02:17:44.619Z,99.69
2018-11-12T02:20:14.170Z,98.44
2018-11-12T02:22:43.552Z,98.75
2018-11-12T02:25:12.723Z,98.94
2018-11-12T02:27:41.269Z,99.48
2018-11-12T02:30:11.386Z,99.65
2018-11-12T02:32:39.912Z,99.60
2018-11-12T02:35:08.662Z,99.43
2018-11-12T02:37:37.751Z,99.24
2018-11-12T02:40:07.574Z,98.81
2018-11-12T02:42:36.061Z,98.01
2018-11-12T02:45:04.629Z,97.81
2018-11-12T02:47:33.181Z,97.82
2018-11-12T02:50:01.614Z,96.59
2018-11-12T02:52:30.078Z,97.37
2018-11-12T02:54:58.571Z,96.83
2018-11-12T02:57:27.931Z,96.09
2018-11-12T02:59:56.338Z,96.56
2018-11-12T03:02:24.800Z,97.30
2018-11-12T03:04:53.260Z,96.33
2018-11-12T03:07:21.830Z,96.92
2018-11-12T03:09:50.307Z,96.57
2018-11-12T03:12:18.742Z,96.08
2018-11-12T03:14:47.214Z,97.82
2018-11-12T03:17:15.674Z,97.81
2018-11-12T03:19:44.180Z,97.47
2018-11-12T03:22:12.663Z,96.90
2018-11-12T03:24:41.102Z,96.96
2018-11-12T03:27:09.601Z,96.56
2018-11-12T03:29:38.067Z,96.60
2018-11-12T03:32:06.627Z,96.24
2018-11-12T03:34:35.112Z,96.14
2018-11-12T03:37:04.246Z,96.66
2018-11-12T03:39:32.678Z,96.23
2018-11-12T03:42:01.141Z,96.63
2018-11-12T03:44:29.637Z,97.05
2018-11-12T03:46:58.110Z,96.61
2018-11-12T03:49:26.515Z,96.53
2018-11-12T03:51:54.987Z,95.82
2018-11-12T03:54:23.504Z,96.22
2018-11-12T03:56:51.969Z,97.14
2018-11-12T03:59:20.636Z,97.06
2018-11-12T04:01:49.102Z,98.02
2018-11-12T04:04:18.089Z,97.50
2018-11-12T04:06:47.179Z,97.88
2018-11-12T04:09:15.628Z,98.09
2018-11-12T04:11:45.087Z,97.81
2018-11-12T04:14:14.086Z,97.92
2018-11-12T04:16:43.977Z,98.24
2018-11-12T04:19:12.668Z,97.46
2018-11-12T04:21:41.208Z,97.80
2018-11-12T04:24:09.634Z,97.94
2018-11-12T04:26:38.087Z,97.77
2018-11-12T04:29:06.647Z,98.07
2018-11-12T04:31:35.071Z,98.06
2018-11-12T04:34:03.520Z,97.65
2018-11-12T04:36:32.501Z,97.74
2018-11-12T04:39:00.941Z,97.97
2018-11-12T04:41:29.770Z,96.84
2018-11-12T04:43:58.262Z,97.11
2018-11-12T04:46:26.717Z,97.21
2018-11-12T04:48:55.327Z,97.09
2018-11-12T04:51:23.780Z,97.46
2018-11-12T04:53:52.367Z,97.04
2018-11-12T04:56:20.773Z,97.55
2018-11-12T04:58:49.223Z,97.87
2018-11-12T05:01:17.663Z,97.94
2018-11-12T05:03:46.118Z,98.04
2018-11-12T05:06:15.296Z,97.65
2018-11-12T05:08:44.705Z,97.61
2018-11-12T05:11:13.158Z,97.58
2018-11-12T05:13:41.722Z,97.92
2018-11-12T05:16:10.172Z,97.95
2018-11-12T05:18:38.623Z,98.09
2018-11-12T05:21:07.112Z,98.75
2018-11-12T05:23:35.556Z,98.59
2018-11-12T05:26:04.051Z,98.09
2018-11-12T05:28:32.550Z,98.26
2018-11-12T05:31:00.947Z,98.36
2018-11-12T05:33:29.408Z,97.91
2018-11-12T05:35:57.904Z,98.54
2018-11-12T05:38:26.456Z,97.27
2018-11-12T05:40:54.863Z,96.79
2018-11-12T05:43:23.292Z,97.01
2018-11-12T05:45:53.376Z,97.45
2018-11-12T05:48:21.834Z,97.42
2018-11-12T05:50:50.265Z,97.37
2018-11-12T05:53:18.694Z,98.05
2018-11-12T05:55:48.030Z,97.73
2018-11-12T05:58:16.447Z,97.60
2018-11-12T06:00:44.958Z,97.66
2018-11-12T06:03:13.389Z,98.15
2018-11-12T06:05:41.891Z,97.63
2018-11-12T06:08:11.428Z,97.65
2018-11-12T06:10:40.083Z,98.14
2018-11-12T06:13:08.655Z,98.16
2018-11-12T06:15:37.167Z,98.36
2018-11-12T06:18:06.276Z,98.78
2018-11-12T06:20:37.459Z,97.83
2018-11-12T06:23:06.247Z,98.31
2018-11-12T06:25:35.823Z,98.63
2018-11-12T06:28:04.638Z,98.42
2018-11-12T06:30:34.455Z,97.86
2018-11-12T06:33:02.920Z,98.27
2018-11-12T06:35:32.296Z,98.11
2018-11-12T06:38:00.723Z,97.92
2018-11-12T06:40:29.384Z,97.87
2018-11-12T06:42:57.887Z,99.50
2018-11-12T06:45:27.568Z,96.24
2018-11-12T06:47:57.196Z,94.63
2018-11-12T06:50:28.042Z,95.39
2018-11-12T06:52:56.677Z,96.29
2018-11-12T06:55:25.654Z,96.34
2018-11-12T06:57:54.553Z,96.19
2018-11-12T07:00:27.931Z,96.95
2018-11-12T07:02:56.406Z,96.57
2018-11-12T07:05:26.087Z,96.37
2018-11-12T07:07:54.528Z,96.51
2018-11-12T07:10:24.244Z,96.92
2018-11-12T07:12:53.599Z,96.59
2018-11-12T07:15:24.804Z,96.81
2018-11-12T07:17:54.018Z,96.49
2018-11-12T07:20:23.846Z,96.43
2018-11-12T07:22:52.700Z,95.97
2018-11-12T07:25:22.817Z,96.79
2018-11-12T07:27:51.253Z,96.36
2018-11-12T07:30:21.942Z,96.80
2018-11-12T07:32:51.482Z,96.62
2018-11-12T07:35:20.430Z,96.42
2018-11-12T07:37:50.602Z,95.41
2018-11-12T07:40:19.407Z,95.07
2018-11-12T07:42:47.939Z,95.99
2018-11-12T07:45:17.773Z,95.04
2018-11-12T07:47:47.270Z,95.39
2018-11-12T07:50:24.191Z,94.37
2018-11-12T07:52:53.034Z,94.34
2018-11-12T07:55:24.756Z,97.70
2018-11-12T07:57:54.412Z,91.49
2018-11-12T08:00:24.559Z,89.34
2018-11-12T08:02:55.867Z,87.04
2018-11-12T08:05:24.949Z,87.39
2018-11-12T08:07:53.393Z,86.22
2018-11-12T08:10:23.303Z,87.44
2018-11-12T08:12:51.733Z,86.72
2018-11-12T08:15:20.430Z,85.59
2018-11-12T08:17:48.992Z,84.56
2018-11-12T08:20:21.594Z,82.92
2018-11-12T08:22:50.831Z,82.58
2018-11-12T08:25:20.103Z,81.75
2018-11-12T08:27:48.855Z,86.30
2018-11-12T08:30:19.886Z,85.04
2018-11-12T08:32:49.421Z,84.00
2018-11-12T08:35:18.165Z,83.85
2018-11-12T08:37:47.086Z,86.88
2018-11-12T08:40:17.020Z,87.32
2018-11-12T08:42:45.588Z,84.86
2018-11-12T08:45:14.298Z,86.10
2018-11-12T08:47:45.167Z,84.56
2018-11-12T08:50:15.609Z,89.07
2018-11-12T08:52:46.018Z,89.06
2018-11-12T08:55:16.413Z,88.93
2018-11-12T08:57:53.968Z,88.93
2018-11-12T09:00:23.335Z,89.33
2018-11-12T09:02:51.867Z,90.35
2018-11-12T09:05:22.522Z,89.46
2018-11-12T09:07:52.626Z,89.31
2018-11-12T09:10:23.065Z,89.58
2018-11-12T09:12:51.529Z,88.76
2018-11-12T09:15:19.966Z,89.49
2018-11-12T09:17:49.202Z,88.68
2018-11-12T09:20:20.235Z,88.84
2018-11-12T09:22:48.775Z,89.11
2018-11-12T09:25:19.124Z,88.84
2018-11-12T09:27:47.623Z,88.86
2018-11-12T09:30:18.307Z,90.32
2018-11-12T09:32:47.121Z,90.11
2018-11-12T09:35:16.790Z,89.37
2018-11-12T09:37:46.574Z,88.95
2018-11-12T09:40:18.683Z,88.04
2018-11-12T09:42:47.491Z,88.76
2018-11-12T09:45:16.142Z,88.26
2018-11-12T09:47:44.931Z,89.02
2018-11-12T09:50:15.651Z,88.20
2018-11-12T09:52:45.516Z,87.68
2018-11-12T09:55:15.796Z,85.81
2018-11-12T09:57:46.822Z,83.90
2018-11-12T10:00:16.960Z,84.04
2018-11-12T10:02:47.311Z,85.44
2018-11-12T10:05:17.756Z,82.63
2018-11-12T10:07:47.568Z,84.66
2018-11-12T10:10:26.192Z,83.24
2018-11-12T10:12:55.179Z,85.33
2018-11-12T10:15:24.532Z,84.50
2018-11-12T10:17:53.863Z,82.00
2018-11-12T10:20:20.179Z,77.23
2018-11-12T10:22:49.666Z,75.35
2018-11-12T10:25:19.157Z,77.00
2018-11-12T10:27:47.626Z,73.13
2018-11-12T10:30:16.103Z,71.84
2018-11-12T10:32:45.195Z,71.65
2018-11-12T10:35:13.635Z,71.74
2018-11-12T10:37:42.681Z,67.71
2018-11-12T10:40:15.603Z,66.98
2018-11-12T10:42:44.517Z,67.29
2018-11-12T10:45:13.721Z,65.74
2018-11-12T10:47:42.553Z,66.05
2018-11-12T10:50:11.632Z,66.32
2018-11-12T10:52:40.176Z,65.11
2018-11-12T10:55:11.863Z,65.38
2018-11-12T10:57:40.845Z,66.28
2018-11-12T11:00:18.343Z,66.73
2018-11-12T11:02:52.635Z,65.84
2018-11-12T11:05:22.366Z,66.65
2018-11-12T11:07:51.631Z,65.14
2018-11-12T11:10:20.568Z,65.19
2018-11-12T11:12:49.028Z,65.86
2018-11-12T11:15:17.589Z,62.34
2018-11-12T11:17:46.618Z,61.37
2018-11-12T11:20:16.234Z,60.30
2018-11-12T11:22:45.052Z,58.81
2018-11-12T11:25:15.014Z,59.30
2018-11-12T11:27:43.461Z,59.22
2018-11-12T11:30:16.405Z,61.80
2018-11-12T11:32:45.179Z,60.97
2018-11-12T11:35:14.983Z,60.65
2018-11-12T11:37:43.553Z,60.42
2018-11-12T11:40:14.404Z,60.56
2018-11-12T11:42:43.071Z,60.65
2018-11-12T11:45:12.753Z,60.07
2018-11-12T11:47:42.328Z,58.37
2018-11-12T11:50:12.679Z,58.52
2018-11-12T11:52:41.059Z,57.26
2018-11-12T11:55:13.063Z,58.89
2018-11-12T11:57:41.942Z,56.98
2018-11-12T12:00:14.615Z,58.75
2018-11-12T12:02:43.936Z,59.74
2018-11-12T12:05:13.960Z,59.38
2018-11-12T12:07:42.431Z,58.77
2018-11-12T12:10:13.107Z,57.08
2018-11-12T12:12:42.138Z,57.92
2018-11-12T12:15:12.450Z,56.94
2018-11-12T12:17:41.131Z,57.69
2018-11-12T12:20:11.952Z,58.31
2018-11-12T12:22:40.405Z,58.48
2018-11-12T12:25:10.799Z,59.79
2018-11-12T12:27:40.072Z,59.16
2018-11-12T12:30:12.913Z,61.41
2018-11-12T12:32:41.840Z,60.59
2018-11-12T12:35:11.689Z,60.77
2018-11-12T12:37:40.596Z,61.06
2018-11-12T12:40:10.866Z,60.54
2018-11-12T12:42:39.908Z,60.90
2018-11-12T12:45:09.707Z,62.74
2018-11-12T12:47:38.267Z,63.31
2018-11-12T12:50:08.445Z,62.49
2018-11-12T12:52:37.044Z,62.49
2018-11-12T12:55:05.975Z,63.10
2018-11-12T12:57:34.673Z,62.35
2018-11-12T13:00:03.789Z,62.97
2018-11-12T13:02:32.232Z,62.85
2018-11-12T13:05:01.299Z,63.13
2018-11-12T13:07:29.748Z,63.92
2018-11-12T13:09:58.182Z,62.96
2018-11-12T13:12:26.663Z,64.39
2018-11-12T13:14:55.295Z,63.31
2018-11-12T13:17:24.082Z,63.44
2018-11-12T13:19:52.643Z,62.87
2018-11-12T13:22:21.066Z,64.48
2018-11-12T13:24:49.932Z,65.46
2018-11-12T13:27:18.407Z,63.75
2018-11-12T13:29:46.931Z,63.29
2018-11-12T13:32:15.340Z,63.87
2018-11-12T13:34:43.827Z,64.28
2018-11-12T13:37:12.329Z,64.40
2018-11-12T13:39:41.779Z,63.79
2018-11-12T13:42:10.230Z,63.39
2018-11-12T13:44:38.680Z,63.89
2018-11-12T13:47:07.484Z,64.96
2018-11-12T13:49:36.085Z,64.75
2018-11-12T13:52:04.597Z,65.19
2018-11-12T13:54:33.094Z,64.39
2018-11-12T13:57:01.590Z,65.38
2018-11-12T13:59:30.068Z,66.24
2018-11-12T14:01:59.016Z,65.36
2018-11-12T14:04:28.459Z,65.58
2018-11-12T14:06:56.901Z,65.62
2018-11-12T14:09:26.006Z,66.57
2018-11-12T14:11:54.478Z,65.88
2018-11-12T14:14:23.694Z,65.95
2018-11-12T14:16:52.192Z,65.47
2018-11-12T14:19:20.744Z,65.73
2018-11-12T14:21:49.874Z,66.65
2018-11-12T14:24:18.359Z,66.10
2018-11-12T14:26:46.803Z,65.45
2018-11-12T14:29:15.272Z,65.82
2018-11-12T14:31:44.374Z,65.38
2018-11-12T14:34:12.900Z,66.36
2018-11-12T14:36:41.380Z,66.49
2018-11-12T14:39:10.757Z,66.72
2018-11-12T14:41:39.375Z,67.13
2018-11-12T14:44:07.980Z,66.67
2018-11-12T14:46:36.472Z,67.09
2018-11-12T14:49:05.210Z,67.09
2018-11-12T14:51:34.480Z,67.54
2018-11-12T14:54:02.924Z,67.02
2018-11-12T14:56:31.399Z,67.35
2018-11-12T14:58:59.938Z,67.58
2018-11-12T15:01:28.480Z,67.48
2018-11-12T15:03:57.071Z,68.01
2018-11-12T15:06:26.459Z,67.58
2018-11-12T15:08:54.952Z,68.22
2018-11-12T15:11:23.470Z,68.70
2018-11-12T15:13:52.008Z,67.99
2018-11-12T15:16:20.773Z,68.33
2018-11-12T15:18:49.239Z,69.03
2018-11-12T15:21:17.710Z,68.95
2018-11-12T15:23:46.667Z,68.82
2018-11-12T15:26:17.711Z,69.33
2018-11-12T15:29:17.300Z,68.75
2018-11-12T15:31:45.852Z,68.73
2018-11-12T15:34:15.331Z,68.69
2018-11-12T15:36:44.568Z,70.48
2018-11-12T15:39:13.048Z,72.71
2018-11-12T15:41:41.552Z,74.05
2018-11-12T15:44:10.155Z,73.18
2018-11-12T15:46:38.574Z,77.17
2018-11-12T15:49:07.084Z,81.04
2018-11-12T15:51:35.589Z,83.03
2018-11-12T15:54:04.129Z,84.60
2018-11-12T15:56:32.590Z,86.86
2018-11-12T15:59:01.056Z,88.55
2018-11-12T16:01:30.071Z,89.65
2018-11-12T16:03:58.695Z,90.78
2018-11-12T16:06:27.195Z,90.53
2018-11-12T16:08:55.638Z,91.56
2018-11-12T16:11:24.104Z,91.41
2018-11-12T16:13:52.629Z,91.10
2018-11-12T16:16:21.094Z,92.77
2018-11-12T16:18:49.535Z,93.18
2018-11-12T16:21:17.967Z,93.43
2018-11-12T16:23:46.487Z,92.27
2018-11-12T16:26:16.085Z,93.87
2018-11-12T16:28:44.530Z,94.78
2018-11-12T16:31:12.942Z,95.70
2018-11-12T16:33:41.350Z,95.17
2018-11-12T16:36:09.767Z,95.90
2018-11-12T16:38:40.849Z,95.88
2018-11-12T16:41:10.003Z,96.11
2018-11-12T16:43:38.442Z,95.86
2018-11-12T16:46:06.903Z,95.40
2018-11-12T16:48:35.279Z,95.48
2018-11-12T16:51:03.755Z,96.51
2018-11-12T16:53:32.243Z,96.46
2018-11-12T16:56:00.635Z,97.21
2018-11-12T16:58:29.030Z,97.24
2018-11-12T17:00:57.450Z,97.00
2018-11-12T17:03:25.923Z,97.44
2018-11-12T17:05:54.343Z,97.63
2018-11-12T17:08:22.806Z,97.73
2018-11-12T17:10:51.363Z,98.54
2018-11-12T17:13:19.807Z,97.92
2018-11-12T17:15:48.225Z,97.79
2018-11-12T17:18:16.649Z,98.86
2018-11-12T17:20:45.087Z,98.51
2018-11-12T17:23:13.612Z,98.29
2018-11-12T17:25:42.418Z,98.78
2018-11-12T17:28:10.828Z,97.81
2018-11-12T17:30:39.282Z,98.06
2018-11-12T17:33:07.703Z,99.07
2018-11-12T17:35:36.245Z,99.05
2018-11-12T17:38:04.904Z,99.92
2018-11-12T17:40:33.455Z,99.81
2018-11-12T17:43:01.885Z,98.96
2018-11-12T17:45:30.342Z,99.06
2018-11-12T17:47:59.132Z,99.35
2018-11-12T17:50:27.578Z,99.84
2018-11-12T17:52:56.000Z,99.44
2018-11-12T17:55:24.489Z,99.88
2018-11-12T17:57:52.957Z,99.56
2018-11-12T18:00:23.590Z,99.75
2018-11-12T18:02:52.007Z,99.72
2018-11-12T18:05:20.507Z,99.57
2018-11-12T18:07:49.033Z,99.74
2018-11-12T18:10:18.290Z,99.48
2018-11-12T18:12:46.748Z,99.26
2018-11-12T18:15:16.586Z,99.01
2018-11-12T18:17:45.154Z,99.59
2018-11-12T18:20:16.435Z,99.16
2018-11-12T18:22:45.496Z,98.59
2018-11-12T18:25:14.400Z,97.79
2018-11-12T18:27:42.816Z,98.49
2018-11-12T18:30:14.450Z,98.46
2018-11-12T18:32:43.580Z,98.67
2018-11-12T18:35:12.044Z,97.70
2018-11-12T18:37:40.554Z,98.11
2018-11-12T18:40:10.715Z,98.44
2018-11-12T18:42:39.290Z,98.16
2018-11-12T18:45:10.023Z,98.66
2018-11-12T18:47:38.759Z,98.40
2018-11-12T18:50:09.597Z,98.05
2018-11-12T18:52:39.032Z,98.09
2018-11-12T18:55:08.330Z,98.61
2018-11-12T18:57:37.122Z,98.21
2018-11-12T19:00:06.686Z,98.25
2018-11-12T19:02:35.102Z,98.07
2018-11-12T19:05:03.707Z,98.33
2018-11-12T19:07:32.123Z,98.32
2018-11-12T19:10:00.544Z,99.06
2018-11-12T19:12:29.030Z,99.31
2018-11-12T19:14:57.483Z,98.97
2018-11-12T19:17:26.016Z,98.91
2018-11-12T19:19:54.458Z,98.87
2018-11-12T19:22:22.896Z,99.36
2018-11-12T19:24:51.314Z,99.26
2018-11-12T19:27:19.929Z,100.00
2018-11-12T19:29:48.262Z,99.61
2018-11-12T19:32:16.739Z,100.00
2018-11-12T19:34:45.299Z,100.00
2018-11-12T19:37:13.748Z,100.00
2018-11-12T19:39:42.222Z,100.00
2018-11-12T19:42:10.702Z,100.00
2018-11-12T19:44:39.314Z,100.00
2018-11-12T19:47:07.832Z,100.00
2018-11-12T19:49:36.500Z,100.00
2018-11-12T19:52:04.985Z,100.00
2018-11-12T19:54:33.470Z,100.00
2018-11-12T19:57:01.921Z,100.00
2018-11-12T19:59:30.475Z,99.90
2018-11-12T20:01:59.238Z,99.22
2018-11-12T20:04:27.742Z,100.00
2018-11-12T20:06:56.254Z,100.00
2018-11-12T20:09:25.160Z,99.72
2018-11-12T20:11:54.481Z,99.09
2018-11-12T20:14:22.972Z,98.71
2018-11-12T20:16:51.433Z,97.99
2018-11-12T20:19:20.851Z,98.42
2018-11-12T20:21:49.331Z,97.94
2018-11-12T20:24:17.862Z,98.21
2018-11-12T20:26:46.340Z,98.38
2018-11-12T20:29:14.802Z,99.01
2018-11-12T20:31:43.808Z,98.73
2018-11-12T20:34:12.283Z,99.20
2018-11-12T20:36:40.881Z,99.68
2018-11-12T20:39:10.310Z,99.05
2018-11-12T20:41:40.029Z,97.79
2018-11-12T20:44:09.131Z,98.07
2018-11-12T20:46:37.562Z,96.96
2018-11-12T20:49:06.772Z,97.41
2018-11-12T20:51:35.532Z,96.41
2018-11-12T20:54:04.346Z,96.92
2018-11-12T20:56:32.833Z,97.23
2018-11-12T20:59:01.315Z,97.14
2018-11-12T21:01:30.006Z,97.81
2018-11-12T21:03:59.084Z,97.68
2018-11-12T21:06:27.502Z,97.13
2018-11-12T21:08:56.466Z,97.80
2018-11-12T21:11:24.972Z,98.54
2018-11-12T21:13:54.303Z,97.87
2018-11-12T21:16:22.745Z,98.18
2018-11-12T21:18:51.163Z,97.89
2018-11-12T21:21:20.129Z,98.40
2018-11-12T21:23:48.654Z,98.38
2018-11-12T21:26:17.093Z,98.53
2018-11-12T21:28:46.144Z,99.49
2018-11-12T21:31:15.133Z,99.05
2018-11-12T21:33:43.604Z,99.76
2018-11-12T21:36:12.030Z,99.59
2018-11-12T21:38:40.908Z,99.01
2018-11-12T21:41:09.399Z,99.41
2018-11-12T21:43:40.577Z,100.00
2018-11-12T21:46:09.985Z,100.00
2018-11-12T21:48:38.468Z,100.00
2018-11-12T21:51:06.936Z,100.00
2018-11-12T21:53:35.373Z,100.00
2018-11-12T21:56:04.806Z,100.00
2018-11-12T21:58:33.313Z,99.78
2018-11-12T22:01:03.067Z,99.81
2018-11-12T22:03:31.644Z,99.90
2018-11-12T22:06:00.164Z,100.00
2018-11-12T22:08:28.862Z,100.00
2018-11-12T22:10:57.331Z,99.41
2018-11-12T22:13:25.772Z,99.38
2018-11-12T22:15:54.219Z,99.88
2018-11-12T22:18:22.748Z,99.71
2018-11-12T22:20:51.312Z,99.85
2018-11-12T22:23:19.775Z,99.91
2018-11-12T22:25:48.268Z,99.78
2018-11-12T22:28:16.780Z,99.67
2018-11-12T22:30:45.358Z,99.87
2018-11-12T22:33:13.821Z,99.68
2018-11-12T22:35:42.404Z,99.68
2018-11-12T22:38:10.918Z,99.78
2018-11-12T22:40:39.376Z,100.00
2018-11-12T22:43:07.811Z,100.00
2018-11-12T22:45:36.297Z,99.93
2018-11-12T22:48:05.113Z,99.94
2018-11-12T22:50:33.548Z,99.93
2018-11-12T22:53:02.027Z,99.99
2018-11-12T22:55:30.491Z,100.00
2018-11-12T22:57:58.946Z,100.00
2018-11-12T23:00:28.832Z,100.00
2018-11-12T23:02:58.075Z,100.00
2018-11-12T23:05:26.680Z,100.00
2018-11-12T23:07:56.326Z,100.00
2018-11-12T23:10:25.763Z,100.00
2018-11-12T23:12:54.223Z,100.00
2018-11-12T23:15:22.695Z,100.00
2018-11-12T23:17:51.200Z,100.00
2018-11-12T23:20:22.610Z,100.00
2018-11-12T23:22:51.496Z,100.00
2018-11-12T23:25:20.002Z,100.00
2018-11-12T23:27:49.136Z,100.00
2018-11-12T23:30:18.882Z,99.91
2018-11-12T23:32:47.331Z,99.89
2018-11-12T23:35:18.417Z,99.48
2018-11-12T23:37:47.493Z,99.62
2018-11-12T23:40:16.143Z,99.03
2018-11-12T23:42:45.313Z,99.41
2018-11-12T23:45:13.787Z,98.78
2018-11-12T23:47:42.257Z,99.06
2018-11-12T23:50:15.023Z,98.96
2018-11-12T23:52:44.337Z,98.90
2018-11-12T23:55:13.140Z,99.03
2018-11-12T23:57:41.700Z,100.00
